sensor_id;sensor_type;location;lat;lon;timestamp;pressure;altitude;pressure_sealevel;temperature;humidity
27840;BME280;15207;42.182;24.308;2022-09-16T00:01:12;98519.16;;;20.51;78.41
27840;BME280;15207;42.182;24.308;2022-09-16T00:03:38;98520.56;;;20.26;80.39
27840;BME280;15207;42.182;24.308;2022-09-16T00:06:05;98517.84;;;20.26;80.89
27840;BME280;15207;42.182;24.308;2022-09-16T00:08:31;98502.59;;;19.90;82.89
27840;BME280;15207;42.182;24.308;2022-09-16T00:11:00;98488.63;;;19.93;82.11
27840;BME280;15207;42.182;24.308;2022-09-16T00:13:27;98491.69;;;20.18;79.42
27840;BME280;15207;42.182;24.308;2022-09-16T00:15:52;98493.63;;;20.31;78.62
27840;BME280;15207;42.182;24.308;2022-09-16T00:18:18;98492.94;;;20.22;81.31
27840;BME280;15207;42.182;24.308;2022-09-16T00:20:50;98509.06;;;20.31;79.83
27840;BME280;15207;42.182;24.308;2022-09-16T00:23:17;98516.59;;;20.35;80.87
27840;BME280;15207;42.182;24.308;2022-09-16T00:25:43;98515.66;;;20.01;82.83
27840;BME280;15207;42.182;24.308;2022-09-16T00:28:09;98508.38;;;19.73;84.55
27840;BME280;15207;42.182;24.308;2022-09-16T00:30:35;98519.97;;;19.53;85.97
27840;BME280;15207;42.182;24.308;2022-09-16T00:33:00;98518.56;;;19.29;87.97
27840;BME280;15207;42.182;24.308;2022-09-16T00:35:26;98518.59;;;19.36;86.13
27840;BME280;15207;42.182;24.308;2022-09-16T00:37:51;98522.56;;;19.40;85.83
27840;BME280;15207;42.182;24.308;2022-09-16T00:40:17;98522.03;;;19.51;85.58
27840;BME280;15207;42.182;24.308;2022-09-16T00:42:42;98526.25;;;19.54;85.68
27840;BME280;15207;42.182;24.308;2022-09-16T00:45:23;98527.22;;;19.46;85.84
27840;BME280;15207;42.182;24.308;2022-09-16T00:47:52;98522.88;;;19.52;84.92
27840;BME280;15207;42.182;24.308;2022-09-16T00:52:43;98543.06;;;19.42;85.15
27840;BME280;15207;42.182;24.308;2022-09-16T00:55:13;98547.50;;;19.22;85.95
27840;BME280;15207;42.182;24.308;2022-09-16T00:57:40;98538.91;;;18.96;86.89
27840;BME280;15207;42.182;24.308;2022-09-16T01:00:06;98525.91;;;18.92;88.53
27840;BME280;15207;42.182;24.308;2022-09-16T01:02:37;98524.19;;;18.84;89.32
27840;BME280;15207;42.182;24.308;2022-09-16T01:05:15;98525.53;;;18.95;88.08
27840;BME280;15207;42.182;24.308;2022-09-16T01:07:44;98527.56;;;19.08;86.84
27840;BME280;15207;42.182;24.308;2022-09-16T01:10:12;98537.56;;;19.07;87.27
27840;BME280;15207;42.182;24.308;2022-09-16T01:12:41;98532.63;;;19.17;86.44
27840;BME280;15207;42.182;24.308;2022-09-16T01:15:08;98536.25;;;19.25;85.25
27840;BME280;15207;42.182;24.308;2022-09-16T01:20:34;98536.25;;;19.25;84.62
27840;BME280;15207;42.182;24.308;2022-09-16T01:36:36;98545.75;;;19.42;83.37
27840;BME280;15207;42.182;24.308;2022-09-16T01:39:22;98533.28;;;19.48;82.53
27840;BME280;15207;42.182;24.308;2022-09-16T01:44:44;98542.34;;;19.55;81.64
27840;BME280;15207;42.182;24.308;2022-09-16T01:47:28;98549.19;;;19.51;82.56
27840;BME280;15207;42.182;24.308;2022-09-16T01:50:24;98535.53;;;19.38;83.37
27840;BME280;15207;42.182;24.308;2022-09-16T01:55:56;98533.53;;;19.25;83.94
27840;BME280;15207;42.182;24.308;2022-09-16T02:00:52;98542.97;;;19.07;85.04
27840;BME280;15207;42.182;24.308;2022-09-16T02:03:27;98555.78;;;19.13;85.27
27840;BME280;15207;42.182;24.308;2022-09-16T02:06:17;98558.25;;;19.08;85.28
27840;BME280;15207;42.182;24.308;2022-09-16T02:08:50;98554.94;;;19.13;84.67
27840;BME280;15207;42.182;24.308;2022-09-16T02:11:17;98562.88;;;18.93;85.53
27840;BME280;15207;42.182;24.308;2022-09-16T02:13:54;98561.81;;;18.72;87.12
27840;BME280;15207;42.182;24.308;2022-09-16T02:16:27;98563.81;;;18.63;88.56
27840;BME280;15207;42.182;24.308;2022-09-16T02:18:58;98567.91;;;18.74;87.22
27840;BME280;15207;42.182;24.308;2022-09-16T02:21:28;98568.00;;;18.66;87.42
27840;BME280;15207;42.182;24.308;2022-09-16T02:23:56;98556.72;;;18.62;86.85
27840;BME280;15207;42.182;24.308;2022-09-16T02:26:26;98570.84;;;18.57;87.87
27840;BME280;15207;42.182;24.308;2022-09-16T02:28:55;98578.53;;;18.54;88.21
27840;BME280;15207;42.182;24.308;2022-09-16T02:31:26;98572.66;;;18.72;86.72
27840;BME280;15207;42.182;24.308;2022-09-16T02:34:05;98566.75;;;18.83;85.82
27840;BME280;15207;42.182;24.308;2022-09-16T02:36:36;98559.31;;;18.92;85.90
27840;BME280;15207;42.182;24.308;2022-09-16T02:39:08;98564.63;;;19.00;85.10
27840;BME280;15207;42.182;24.308;2022-09-16T02:41:36;98569.84;;;19.02;85.04
27840;BME280;15207;42.182;24.308;2022-09-16T02:44:02;98571.72;;;19.01;84.96
27840;BME280;15207;42.182;24.308;2022-09-16T02:49:12;98561.16;;;19.07;82.09
27840;BME280;15207;42.182;24.308;2022-09-16T02:52:03;98558.03;;;19.10;81.35
27840;BME280;15207;42.182;24.308;2022-09-16T02:55:04;98555.13;;;19.11;81.42
27840;BME280;15207;42.182;24.308;2022-09-16T02:57:28;98566.84;;;18.97;82.51
27840;BME280;15207;42.182;24.308;2022-09-16T02:59:53;98559.88;;;18.87;83.50
27840;BME280;15207;42.182;24.308;2022-09-16T03:02:19;98557.38;;;18.86;83.40
27840;BME280;15207;42.182;24.308;2022-09-16T03:04:45;98556.72;;;18.84;82.78
27840;BME280;15207;42.182;24.308;2022-09-16T03:07:11;98552.97;;;18.85;83.09
27840;BME280;15207;42.182;24.308;2022-09-16T03:09:42;98559.00;;;18.80;83.40
27840;BME280;15207;42.182;24.308;2022-09-16T03:15:02;98558.22;;;18.64;84.46
27840;BME280;15207;42.182;24.308;2022-09-16T03:18:21;98546.66;;;18.56;84.65
27840;BME280;15207;42.182;24.308;2022-09-16T03:23:53;98561.31;;;18.09;88.60
27840;BME280;15207;42.182;24.308;2022-09-16T03:26:35;98560.69;;;18.07;88.58
27840;BME280;15207;42.182;24.308;2022-09-16T03:37:09;98559.97;;;18.35;86.05
27840;BME280;15207;42.182;24.308;2022-09-16T03:39:37;98561.00;;;18.34;85.72
27840;BME280;15207;42.182;24.308;2022-09-16T03:42:05;98543.16;;;18.25;85.76
27840;BME280;15207;42.182;24.308;2022-09-16T03:44:34;98546.72;;;18.26;86.31
27840;BME280;15207;42.182;24.308;2022-09-16T03:47:00;98542.97;;;18.27;85.66
27840;BME280;15207;42.182;24.308;2022-09-16T03:49:25;98552.88;;;18.34;85.84
27840;BME280;15207;42.182;24.308;2022-09-16T03:51:51;98552.03;;;18.34;84.96
27840;BME280;15207;42.182;24.308;2022-09-16T03:54:16;98542.31;;;18.40;85.04
27840;BME280;15207;42.182;24.308;2022-09-16T03:56:42;98543.00;;;18.48;83.87
27840;BME280;15207;42.182;24.308;2022-09-16T03:59:07;98544.38;;;18.22;86.64
27840;BME280;15207;42.182;24.308;2022-09-16T04:01:33;98554.94;;;18.02;88.38
27840;BME280;15207;42.182;24.308;2022-09-16T04:03:59;98552.44;;;18.01;88.96
27840;BME280;15207;42.182;24.308;2022-09-16T04:06:24;98551.13;;;17.96;88.61
27840;BME280;15207;42.182;24.308;2022-09-16T04:08:50;98554.28;;;18.00;88.54
27840;BME280;15207;42.182;24.308;2022-09-16T04:11:16;98550.75;;;18.15;86.78
27840;BME280;15207;42.182;24.308;2022-09-16T04:13:42;98548.22;;;18.28;84.84
27840;BME280;15207;42.182;24.308;2022-09-16T04:16:07;98561.38;;;18.31;85.80
27840;BME280;15207;42.182;24.308;2022-09-16T04:18:33;98562.78;;;18.27;85.82
27840;BME280;15207;42.182;24.308;2022-09-16T04:21:00;98571.66;;;18.36;86.13
27840;BME280;15207;42.182;24.308;2022-09-16T04:23:27;98579.31;;;18.32;86.10
27840;BME280;15207;42.182;24.308;2022-09-16T04:25:57;98581.50;;;18.07;88.56
27840;BME280;15207;42.182;24.308;2022-09-16T04:28:24;98587.25;;;18.04;89.80
27840;BME280;15207;42.182;24.308;2022-09-16T04:30:50;98591.34;;;18.00;89.91
27840;BME280;15207;42.182;24.308;2022-09-16T04:33:16;98581.19;;;18.02;89.89
27840;BME280;15207;42.182;24.308;2022-09-16T04:35:42;98586.44;;;18.18;88.49
27840;BME280;15207;42.182;24.308;2022-09-16T04:38:07;98586.97;;;18.44;87.16
27840;BME280;15207;42.182;24.308;2022-09-16T04:40:33;98584.00;;;18.60;86.74
27840;BME280;15207;42.182;24.308;2022-09-16T04:42:59;98570.47;;;18.82;85.20
27840;BME280;15207;42.182;24.308;2022-09-16T04:45:24;98565.00;;;18.97;84.17
27840;BME280;15207;42.182;24.308;2022-09-16T04:47:57;98574.44;;;19.01;83.23
27840;BME280;15207;42.182;24.308;2022-09-16T04:50:23;98570.78;;;19.09;82.83
27840;BME280;15207;42.182;24.308;2022-09-16T04:52:49;98574.69;;;19.28;82.22
27840;BME280;15207;42.182;24.308;2022-09-16T04:55:16;98576.88;;;19.40;82.36
27840;BME280;15207;42.182;24.308;2022-09-16T04:57:42;98577.56;;;19.49;82.31
27840;BME280;15207;42.182;24.308;2022-09-16T05:00:08;98565.28;;;19.53;81.27
27840;BME280;15207;42.182;24.308;2022-09-16T05:02:34;98571.44;;;19.68;82.29
27840;BME280;15207;42.182;24.308;2022-09-16T05:04:59;98568.66;;;19.90;80.24
27840;BME280;15207;42.182;24.308;2022-09-16T05:07:27;98569.84;;;20.16;79.15
27840;BME280;15207;42.182;24.308;2022-09-16T05:09:53;98568.06;;;20.37;78.75
27840;BME280;15207;42.182;24.308;2022-09-16T05:12:18;98564.13;;;20.46;78.09
27840;BME280;15207;42.182;24.308;2022-09-16T05:14:44;98570.66;;;20.66;77.91
27840;BME280;15207;42.182;24.308;2022-09-16T05:17:09;98563.34;;;20.66;78.51
27840;BME280;15207;42.182;24.308;2022-09-16T05:19:35;98565.00;;;20.67;77.27
27840;BME280;15207;42.182;24.308;2022-09-16T05:22:01;98564.41;;;20.85;77.36
27840;BME280;15207;42.182;24.308;2022-09-16T05:24:32;98565.75;;;21.03;77.10
27840;BME280;15207;42.182;24.308;2022-09-16T05:26:58;98556.53;;;21.18;75.73
27840;BME280;15207;42.182;24.308;2022-09-16T05:29:23;98558.63;;;21.22;77.38
27840;BME280;15207;42.182;24.308;2022-09-16T05:31:49;98549.00;;;21.26;76.15
27840;BME280;15207;42.182;24.308;2022-09-16T05:34:17;98549.41;;;21.44;75.39
27840;BME280;15207;42.182;24.308;2022-09-16T05:36:44;98550.47;;;21.49;74.28
27840;BME280;15207;42.182;24.308;2022-09-16T05:39:12;98550.41;;;21.70;73.90
27840;BME280;15207;42.182;24.308;2022-09-16T05:41:41;98538.06;;;21.87;72.33
27840;BME280;15207;42.182;24.308;2022-09-16T05:44:07;98541.72;;;22.20;71.64
27840;BME280;15207;42.182;24.308;2022-09-16T05:46:32;98533.44;;;22.33;69.70
27840;BME280;15207;42.182;24.308;2022-09-16T05:48:58;98534.81;;;22.63;70.56
27840;BME280;15207;42.182;24.308;2022-09-16T05:51:24;98533.56;;;22.91;69.62
27840;BME280;15207;42.182;24.308;2022-09-16T05:53:51;98524.84;;;23.08;67.76
27840;BME280;15207;42.182;24.308;2022-09-16T05:56:19;98534.19;;;23.19;67.71
27840;BME280;15207;42.182;24.308;2022-09-16T05:58:45;98528.53;;;23.46;68.22
27840;BME280;15207;42.182;24.308;2022-09-16T06:01:14;98531.53;;;23.63;67.76
27840;BME280;15207;42.182;24.308;2022-09-16T06:03:42;98532.16;;;23.84;65.91
27840;BME280;15207;42.182;24.308;2022-09-16T06:06:24;98534.50;;;23.99;66.84
27840;BME280;15207;42.182;24.308;2022-09-16T06:08:51;98541.44;;;24.20;66.64
27840;BME280;15207;42.182;24.308;2022-09-16T06:11:17;98538.31;;;24.35;66.37
27840;BME280;15207;42.182;24.308;2022-09-16T06:13:43;98531.97;;;24.53;63.60
27840;BME280;15207;42.182;24.308;2022-09-16T06:16:09;98535.81;;;24.76;61.74
27840;BME280;15207;42.182;24.308;2022-09-16T06:18:36;98528.88;;;24.92;60.63
27840;BME280;15207;42.182;24.308;2022-09-16T06:21:09;98525.94;;;25.06;61.94
27840;BME280;15207;42.182;24.308;2022-09-16T06:23:36;98525.00;;;25.24;59.71
27840;BME280;15207;42.182;24.308;2022-09-16T06:28:30;98515.97;;;25.35;60.03
27840;BME280;15207;42.182;24.308;2022-09-16T06:31:06;98527.19;;;25.58;60.21
27840;BME280;15207;42.182;24.308;2022-09-16T06:33:34;98530.50;;;25.60;59.30
27840;BME280;15207;42.182;24.308;2022-09-16T06:36:14;98544.44;;;25.70;60.26
27840;BME280;15207;42.182;24.308;2022-09-16T06:38:41;98542.75;;;25.93;60.68
27840;BME280;15207;42.182;24.308;2022-09-16T06:41:09;98530.94;;;26.05;57.96
27840;BME280;15207;42.182;24.308;2022-09-16T06:43:36;98537.94;;;26.12;57.34
27840;BME280;15207;42.182;24.308;2022-09-16T06:46:06;98538.09;;;26.06;55.67
27840;BME280;15207;42.182;24.308;2022-09-16T06:48:35;98523.50;;;26.17;53.15
27840;BME280;15207;42.182;24.308;2022-09-16T06:51:01;98522.91;;;26.27;51.51
27840;BME280;15207;42.182;24.308;2022-09-16T06:53:28;98521.22;;;26.38;53.22
27840;BME280;15207;42.182;24.308;2022-09-16T06:55:58;98519.09;;;26.57;54.20
27840;BME280;15207;42.182;24.308;2022-09-16T06:58:25;98523.53;;;26.75;54.04
27840;BME280;15207;42.182;24.308;2022-09-16T07:00:51;98524.31;;;26.88;52.80
27840;BME280;15207;42.182;24.308;2022-09-16T07:03:17;98527.59;;;27.02;54.24
27840;BME280;15207;42.182;24.308;2022-09-16T07:05:42;98529.34;;;27.08;54.61
27840;BME280;15207;42.182;24.308;2022-09-16T07:08:08;98533.69;;;27.04;55.50
27840;BME280;15207;42.182;24.308;2022-09-16T07:10:35;98534.25;;;27.06;57.22
27840;BME280;15207;42.182;24.308;2022-09-16T07:13:01;98536.69;;;27.19;58.08
27840;BME280;15207;42.182;24.308;2022-09-16T07:15:28;98533.84;;;27.31;55.95
27840;BME280;15207;42.182;24.308;2022-09-16T07:17:55;98530.59;;;27.35;54.53
27840;BME280;15207;42.182;24.308;2022-09-16T07:20:21;98534.50;;;27.39;53.26
27840;BME280;15207;42.182;24.308;2022-09-16T07:22:47;98532.81;;;27.55;55.21
27840;BME280;15207;42.182;24.308;2022-09-16T07:25:15;98528.41;;;27.71;53.91
27840;BME280;15207;42.182;24.308;2022-09-16T07:27:41;98526.25;;;27.73;52.34
27840;BME280;15207;42.182;24.308;2022-09-16T07:30:06;98522.84;;;27.88;50.19
27840;BME280;15207;42.182;24.308;2022-09-16T07:32:32;98520.75;;;27.95;50.20
27840;BME280;15207;42.182;24.308;2022-09-16T07:34:58;98521.25;;;28.15;48.57
27840;BME280;15207;42.182;24.308;2022-09-16T07:37:23;98526.41;;;28.28;48.09
27840;BME280;15207;42.182;24.308;2022-09-16T07:39:49;98525.50;;;28.45;45.34
27840;BME280;15207;42.182;24.308;2022-09-16T07:42:14;98521.59;;;28.68;42.66
27840;BME280;15207;42.182;24.308;2022-09-16T07:44:40;98511.44;;;28.69;45.72
27840;BME280;15207;42.182;24.308;2022-09-16T07:47:05;98512.06;;;28.81;44.69
27840;BME280;15207;42.182;24.308;2022-09-16T07:49:31;98513.38;;;29.01;44.66
27840;BME280;15207;42.182;24.308;2022-09-16T07:51:57;98521.00;;;29.21;43.20
27840;BME280;15207;42.182;24.308;2022-09-16T07:54:22;98500.47;;;29.39;42.34
27840;BME280;15207;42.182;24.308;2022-09-16T07:56:48;98505.31;;;29.60;43.67
27840;BME280;15207;42.182;24.308;2022-09-16T07:59:16;98510.59;;;29.72;41.87
27840;BME280;15207;42.182;24.308;2022-09-16T08:01:42;98505.47;;;29.91;44.91
27840;BME280;15207;42.182;24.308;2022-09-16T08:04:08;98503.25;;;29.93;43.51
27840;BME280;15207;42.182;24.308;2022-09-16T08:06:37;98502.56;;;30.18;43.02
27840;BME280;15207;42.182;24.308;2022-09-16T08:09:03;98489.91;;;30.28;41.57
27840;BME280;15207;42.182;24.308;2022-09-16T08:11:30;98495.13;;;30.24;40.95
27840;BME280;15207;42.182;24.308;2022-09-16T08:14:00;98490.22;;;30.42;41.19
27840;BME280;15207;42.182;24.308;2022-09-16T08:16:26;98499.91;;;30.55;39.36
27840;BME280;15207;42.182;24.308;2022-09-16T08:18:55;98488.91;;;30.70;39.55
27840;BME280;15207;42.182;24.308;2022-09-16T08:21:25;98488.38;;;30.84;43.09
27840;BME280;15207;42.182;24.308;2022-09-16T08:23:52;98473.97;;;30.77;40.76
27840;BME280;15207;42.182;24.308;2022-09-16T08:26:19;98472.06;;;30.98;38.22
27840;BME280;15207;42.182;24.308;2022-09-16T08:28:45;98470.94;;;31.14;39.13
27840;BME280;15207;42.182;24.308;2022-09-16T08:31:11;98464.00;;;31.27;38.63
27840;BME280;15207;42.182;24.308;2022-09-16T08:33:38;98472.03;;;31.39;36.90
27840;BME280;15207;42.182;24.308;2022-09-16T08:36:06;98470.31;;;31.59;36.52
27840;BME280;15207;42.182;24.308;2022-09-16T08:38:33;98458.16;;;31.60;37.18
27840;BME280;15207;42.182;24.308;2022-09-16T08:46:22;98444.31;;;31.71;37.88
27840;BME280;15207;42.182;24.308;2022-09-16T08:49:01;98438.75;;;31.76;37.43
27840;BME280;15207;42.182;24.308;2022-09-16T08:51:31;98444.03;;;31.62;37.00
27840;BME280;15207;42.182;24.308;2022-09-16T08:54:00;98444.31;;;31.65;37.32
27840;BME280;15207;42.182;24.308;2022-09-16T08:56:29;98441.25;;;31.67;37.02
27840;BME280;15207;42.182;24.308;2022-09-16T08:58:59;98442.91;;;31.78;36.54
27840;BME280;15207;42.182;24.308;2022-09-16T09:01:46;98442.03;;;31.88;36.32
27840;BME280;15207;42.182;24.308;2022-09-16T09:04:13;98430.41;;;31.91;34.96
27840;BME280;15207;42.182;24.308;2022-09-16T09:06:57;98424.88;;;31.91;35.86
27840;BME280;15207;42.182;24.308;2022-09-16T09:18:13;98419.00;;;32.03;35.02
27840;BME280;15207;42.182;24.308;2022-09-16T09:37:19;98389.28;;;31.64;38.17
27840;BME280;15207;42.182;24.308;2022-09-16T09:39:59;98390.66;;;31.66;40.54
27840;BME280;15207;42.182;24.308;2022-09-16T09:42:32;98387.06;;;31.66;42.04
27840;BME280;15207;42.182;24.308;2022-09-16T09:45:10;98392.28;;;31.73;41.29
27840;BME280;15207;42.182;24.308;2022-09-16T09:48:15;98396.19;;;31.66;38.86
27840;BME280;15207;42.182;24.308;2022-09-16T09:50:45;98391.50;;;31.57;33.82
27840;BME280;15207;42.182;24.308;2022-09-16T09:53:21;98390.13;;;31.54;37.17
27840;BME280;15207;42.182;24.308;2022-09-16T09:55:59;98377.97;;;31.55;36.14
27840;BME280;15207;42.182;24.308;2022-09-16T09:58:40;98374.63;;;31.63;38.59
27840;BME280;15207;42.182;24.308;2022-09-16T10:01:09;98373.41;;;31.80;36.32
27840;BME280;15207;42.182;24.308;2022-09-16T10:03:36;98381.44;;;31.87;39.76
27840;BME280;15207;42.182;24.308;2022-09-16T10:06:04;98370.94;;;31.84;40.79
27840;BME280;15207;42.182;24.308;2022-09-16T10:08:48;98375.84;;;31.97;41.60
27840;BME280;15207;42.182;24.308;2022-09-16T10:11:24;98376.72;;;31.92;43.01
27840;BME280;15207;42.182;24.308;2022-09-16T10:13:55;98379.47;;;31.98;39.36
27840;BME280;15207;42.182;24.308;2022-09-16T10:16:28;98378.66;;;31.92;39.34
27840;BME280;15207;42.182;24.308;2022-09-16T10:19:25;98382.78;;;31.95;40.06
27840;BME280;15207;42.182;24.308;2022-09-16T10:21:56;98377.78;;;32.02;41.33
27840;BME280;15207;42.182;24.308;2022-09-16T10:24:37;98356.47;;;31.97;38.13
27840;BME280;15207;42.182;24.308;2022-09-16T10:27:31;98361.66;;;32.09;41.69
27840;BME280;15207;42.182;24.308;2022-09-16T10:30:18;98370.66;;;32.30;41.47
27840;BME280;15207;42.182;24.308;2022-09-16T10:32:44;98367.28;;;32.39;38.83
27840;BME280;15207;42.182;24.308;2022-09-16T10:35:21;98362.28;;;32.41;34.51
27840;BME280;15207;42.182;24.308;2022-09-16T10:37:50;98359.34;;;32.62;37.41
27840;BME280;15207;42.182;24.308;2022-09-16T10:40:17;98365.41;;;32.69;31.82
27840;BME280;15207;42.182;24.308;2022-09-16T10:42:47;98358.69;;;32.75;32.31
27840;BME280;15207;42.182;24.308;2022-09-16T10:45:21;98358.28;;;32.87;31.34
27840;BME280;15207;42.182;24.308;2022-09-16T10:47:53;98357.31;;;33.02;31.22
27840;BME280;15207;42.182;24.308;2022-09-16T10:50:20;98356.06;;;33.19;31.80
27840;BME280;15207;42.182;24.308;2022-09-16T10:52:47;98352.69;;;33.22;31.28
27840;BME280;15207;42.182;24.308;2022-09-16T10:55:20;98341.41;;;33.13;32.60
27840;BME280;15207;42.182;24.308;2022-09-16T10:57:47;98337.22;;;33.16;31.84
27840;BME280;15207;42.182;24.308;2022-09-16T11:08:47;98324.94;;;33.46;31.12
27840;BME280;15207;42.182;24.308;2022-09-16T11:17:17;98328.94;;;33.35;30.62
27840;BME280;15207;42.182;24.308;2022-09-16T11:22:25;98323.72;;;33.58;34.92
27840;BME280;15207;42.182;24.308;2022-09-16T11:25:04;98318.78;;;33.74;30.95
27840;BME280;15207;42.182;24.308;2022-09-16T11:27:53;98319.97;;;33.87;32.64
27840;BME280;15207;42.182;24.308;2022-09-16T11:30:22;98325.59;;;34.01;30.40
27840;BME280;15207;42.182;24.308;2022-09-16T11:51:47;98349.72;;;33.13;36.21
27840;BME280;15207;42.182;24.308;2022-09-16T11:57:23;98366.16;;;32.75;40.29
27840;BME280;15207;42.182;24.308;2022-09-16T11:59:54;98355.72;;;32.26;39.47
27840;BME280;15207;42.182;24.308;2022-09-16T12:02:34;98369.94;;;31.64;36.84
27840;BME280;15207;42.182;24.308;2022-09-16T12:07:38;98380.59;;;30.99;38.46
27840;BME280;15207;42.182;24.308;2022-09-16T12:10:25;98361.56;;;30.77;37.54
27840;BME280;15207;42.182;24.308;2022-09-16T12:12:57;98359.34;;;30.64;39.48
27840;BME280;15207;42.182;24.308;2022-09-16T12:15:35;98357.16;;;30.50;40.36
27840;BME280;15207;42.182;24.308;2022-09-16T12:18:18;98375.38;;;30.25;41.17
27840;BME280;15207;42.182;24.308;2022-09-16T12:21:09;98392.94;;;29.98;41.47
27840;BME280;15207;42.182;24.308;2022-09-16T12:23:44;98384.84;;;29.76;43.26
27840;BME280;15207;42.182;24.308;2022-09-16T12:27:00;98393.38;;;29.69;43.29
27840;BME280;15207;42.182;24.308;2022-09-16T12:29:25;98398.63;;;29.70;43.39
27840;BME280;15207;42.182;24.308;2022-09-16T12:31:57;98395.91;;;29.81;43.34
27840;BME280;15207;42.182;24.308;2022-09-16T12:34:44;98389.88;;;29.89;42.83
27840;BME280;15207;42.182;24.308;2022-09-16T12:37:31;98392.38;;;29.91;43.47
27840;BME280;15207;42.182;24.308;2022-09-16T12:40:00;98381.00;;;29.77;42.98
27840;BME280;15207;42.182;24.308;2022-09-16T12:45:37;98393.50;;;29.41;46.18
27840;BME280;15207;42.182;24.308;2022-09-16T13:02:31;98395.88;;;29.17;45.57
27840;BME280;15207;42.182;24.308;2022-09-16T13:05:00;98393.38;;;29.15;44.32
27840;BME280;15207;42.182;24.308;2022-09-16T13:07:33;98400.81;;;29.15;46.12
27840;BME280;15207;42.182;24.308;2022-09-16T13:10:14;98400.81;;;29.15;45.92
27840;BME280;15207;42.182;24.308;2022-09-16T13:12:41;98401.97;;;29.24;43.69
27840;BME280;15207;42.182;24.308;2022-09-16T13:17:52;98401.47;;;29.33;45.04
27840;BME280;15207;42.182;24.308;2022-09-16T13:22:58;98413.25;;;29.71;43.64
27840;BME280;15207;42.182;24.308;2022-09-16T13:25:29;98415.78;;;29.83;42.77
27840;BME280;15207;42.182;24.308;2022-09-16T13:28:02;98423.81;;;29.90;42.84
27840;BME280;15207;42.182;24.308;2022-09-16T13:30:34;98423.00;;;30.00;43.49
27840;BME280;15207;42.182;24.308;2022-09-16T13:33:26;98418.94;;;30.13;41.46
27840;BME280;15207;42.182;24.308;2022-09-16T13:36:11;98420.59;;;30.19;42.28
27840;BME280;15207;42.182;24.308;2022-09-16T13:38:40;98420.59;;;30.14;43.56
27840;BME280;15207;42.182;24.308;2022-09-16T13:41:09;98415.00;;;29.98;42.86
27840;BME280;15207;42.182;24.308;2022-09-16T13:46:12;98421.84;;;29.80;43.92
27840;BME280;15207;42.182;24.308;2022-09-16T13:51:30;98424.03;;;29.78;44.94
27840;BME280;15207;42.182;24.308;2022-09-16T13:53:58;98415.44;;;29.69;44.65
27840;BME280;15207;42.182;24.308;2022-09-16T14:02:50;98431.91;;;29.53;45.40
27840;BME280;15207;42.182;24.308;2022-09-16T14:05:47;98421.06;;;29.41;44.79
27840;BME280;15207;42.182;24.308;2022-09-16T14:11:47;98405.38;;;29.42;45.13
27840;BME280;15207;42.182;24.308;2022-09-16T14:14:17;98410.03;;;29.41;45.83
27840;BME280;15207;42.182;24.308;2022-09-16T14:16:44;98415.09;;;29.50;46.18
27840;BME280;15207;42.182;24.308;2022-09-16T14:24:38;98409.38;;;29.67;44.45
27840;BME280;15207;42.182;24.308;2022-09-16T14:27:05;98407.75;;;29.71;45.05
27840;BME280;15207;42.182;24.308;2022-09-16T14:29:31;98400.25;;;29.66;45.55
27840;BME280;15207;42.182;24.308;2022-09-16T14:31:56;98405.75;;;29.61;43.73
27840;BME280;15207;42.182;24.308;2022-09-16T14:34:27;98405.28;;;29.75;43.58
27840;BME280;15207;42.182;24.308;2022-09-16T14:36:53;98417.31;;;29.53;43.80
27840;BME280;15207;42.182;24.308;2022-09-16T14:39:21;98425.25;;;29.49;45.25
27840;BME280;15207;42.182;24.308;2022-09-16T14:41:51;98419.38;;;29.35;46.94
27840;BME280;15207;42.182;24.308;2022-09-16T14:46:44;98418.44;;;28.81;44.81
27840;BME280;15207;42.182;24.308;2022-09-16T14:49:13;98423.09;;;28.75;44.52
27840;BME280;15207;42.182;24.308;2022-09-16T14:51:44;98423.75;;;28.55;44.02
27840;BME280;15207;42.182;24.308;2022-09-16T14:54:16;98427.25;;;28.45;44.69
27840;BME280;15207;42.182;24.308;2022-09-16T14:56:58;98418.16;;;28.45;45.09
27840;BME280;15207;42.182;24.308;2022-09-16T14:59:29;98420.34;;;28.43;45.24
27840;BME280;15207;42.182;24.308;2022-09-16T15:02:00;98415.81;;;28.31;45.37
27840;BME280;15207;42.182;24.308;2022-09-16T15:04:31;98414.69;;;28.27;46.20
27840;BME280;15207;42.182;24.308;2022-09-16T15:07:04;98408.00;;;28.23;45.75
27840;BME280;15207;42.182;24.308;2022-09-16T15:09:40;98413.91;;;28.09;45.55
27840;BME280;15207;42.182;24.308;2022-09-16T15:12:17;98414.19;;;27.85;46.60
27840;BME280;15207;42.182;24.308;2022-09-16T15:14:44;98411.63;;;27.79;47.37
27840;BME280;15207;42.182;24.308;2022-09-16T15:17:16;98415.47;;;27.78;47.34
27840;BME280;15207;42.182;24.308;2022-09-16T15:19:49;98406.91;;;27.74;47.39
27840;BME280;15207;42.182;24.308;2022-09-16T15:22:16;98392.38;;;27.79;47.55
27840;BME280;15207;42.182;24.308;2022-09-16T15:24:42;98397.63;;;27.80;47.42
27840;BME280;15207;42.182;24.308;2022-09-16T15:27:20;98394.28;;;27.73;44.95
27840;BME280;15207;42.182;24.308;2022-09-16T15:29:47;98386.84;;;27.73;44.79
27840;BME280;15207;42.182;24.308;2022-09-16T15:32:17;98394.03;;;27.75;45.46
27840;BME280;15207;42.182;24.308;2022-09-16T15:34:43;98385.72;;;27.69;46.24
27840;BME280;15207;42.182;24.308;2022-09-16T15:37:28;98388.72;;;27.68;45.61
27840;BME280;15207;42.182;24.308;2022-09-16T15:40:07;98384.94;;;27.74;46.06
27840;BME280;15207;42.182;24.308;2022-09-16T15:42:33;98388.78;;;27.73;45.93
27840;BME280;15207;42.182;24.308;2022-09-16T15:45:00;98397.72;;;27.63;46.53
27840;BME280;15207;42.182;24.308;2022-09-16T15:50:10;98402.91;;;27.59;47.72
27840;BME280;15207;42.182;24.308;2022-09-16T15:53:17;98402.16;;;27.64;48.89
27840;BME280;15207;42.182;24.308;2022-09-16T15:58:23;98380.75;;;27.49;46.76